Time;durP1;ratioP1;P1;durP2;ratioP2;P2;SDS_P1;SDS_P2;PMS_P1;PMS_P2;Temp;Humidity;BMP_temperature;BMP_pressure;BME280_temperature;BME280_humidity;BME280_pressure;Samples;Min_cycle;Max_cycle;Signal;HPM_P1;HPM_P2
2020/12/03 00:00:22;;;;;;;14.85;8.93;;;;;;;;;;2082779;28;20033;-65
2020/12/03 00:01:41;;;;;;;14.95;8.88;;;;;;;;;;2081045;28;20063;-65
2020/12/03 00:03:01;;;;;;;11.95;8.65;;;;;;;;;;2080997;28;20030;-65
2020/12/03 00:04:20;;;;;;;13.80;8.50;;;;;;;;;;2082681;28;20033;-66
2020/12/03 00:05:39;;;;;;;14.60;8.88;;;;;;;;;;2082712;28;20021;-65
2020/12/03 00:07:00;;;;;;;15.23;9.95;;;;;;;;;;2078691;28;20037;-66
2020/12/03 00:08:19;;;;;;;15.40;8.63;;;;;;;;;;2077878;28;20500;-65
2020/12/03 00:09:41;;;;;;;12.93;8.48;;;;;;;;;;2082616;28;20489;-66
2020/12/03 00:11:00;;;;;;;15.38;8.63;;;;;;;;;;2082463;28;20108;-65
2020/12/03 00:12:20;;;;;;;11.57;8.55;;;;;;;;;;2082313;28;20025;-65
2020/12/03 00:13:39;;;;;;;11.70;8.88;;;;;;;;;;2082653;28;20022;-65
2020/12/03 00:14:58;;;;;;;12.38;8.45;;;;;;;;;;2075698;28;20537;-65
2020/12/03 00:16:17;;;;;;;12.07;8.60;;;;;;;;;;2080475;28;20025;-65
2020/12/03 00:17:36;;;;;;;13.45;8.57;;;;;;;;;;2082744;28;20033;-65
2020/12/03 00:18:55;;;;;;;13.18;8.40;;;;;;;;;;2082355;28;20029;-65
2020/12/03 00:20:15;;;;;;;13.10;9.15;;;;;;;;;;2082504;28;20021;-65
2020/12/03 00:21:42;;;;;;;13.27;8.35;;;;;;;;;;2079662;28;20112;-65
2020/12/03 00:23:01;;;;;;;16.25;8.60;;;;;;;;;;2080393;28;20120;-65
2020/12/03 00:24:21;;;;;;;11.07;7.70;;;;;;;;;;2082337;28;20112;-62
2020/12/03 00:25:40;;;;;;;11.27;8.48;;;;;;;;;;2082464;28;20465;-65
2020/12/03 00:27:07;;;;;;;15.65;8.63;;;;;;;;;;2081934;28;20029;-63
2020/12/03 00:28:27;;;;;;;13.27;7.85;;;;;;;;;;2080388;28;20049;-64
2020/12/03 00:29:46;;;;;;;11.75;7.78;;;;;;;;;;2080701;28;20029;-63
2020/12/03 00:31:05;;;;;;;11.20;7.50;;;;;;;;;;2080745;28;20428;-64
2020/12/03 00:32:24;;;;;;;14.52;9.05;;;;;;;;;;2081334;28;20025;-64
2020/12/03 00:33:43;;;;;;;11.43;8.52;;;;;;;;;;2081463;28;20026;-64
2020/12/03 00:35:02;;;;;;;12.50;8.27;;;;;;;;;;2082414;28;20393;-64
2020/12/03 00:36:21;;;;;;;12.32;7.97;;;;;;;;;;2078334;28;20509;-64
2020/12/03 00:37:41;;;;;;;11.75;7.90;;;;;;;;;;2081925;28;20030;-64
2020/12/03 00:39:00;;;;;;;16.40;8.50;;;;;;;;;;2082385;28;20017;-64
2020/12/03 00:40:20;;;;;;;11.93;7.43;;;;;;;;;;2082336;28;20025;-64
2020/12/03 00:41:39;;;;;;;14.75;7.97;;;;;;;;;;2081454;28;20477;-64
2020/12/03 00:42:58;;;;;;;15.38;8.25;;;;;;;;;;2080939;28;20473;-64
2020/12/03 00:44:18;;;;;;;12.73;8.48;;;;;;;;;;2081076;28;20481;-64
2020/12/03 00:45:37;;;;;;;12.63;8.57;;;;;;;;;;2077232;28;20033;-64
2020/12/03 00:46:55;;;;;;;12.68;7.57;;;;;;;;;;2076179;28;20030;-64
2020/12/03 00:48:15;;;;;;;12.20;7.80;;;;;;;;;;2081652;28;20029;-64
2020/12/03 00:49:34;;;;;;;11.95;7.78;;;;;;;;;;2081807;28;20061;-63
2020/12/03 00:50:53;;;;;;;10.30;7.28;;;;;;;;;;2081180;28;20436;-63
2020/12/03 00:52:12;;;;;;;12.65;8.05;;;;;;;;;;2078827;28;20493;-63
2020/12/03 00:53:31;;;;;;;11.10;7.55;;;;;;;;;;2078181;28;20021;-63
2020/12/03 00:54:49;;;;;;;12.18;8.07;;;;;;;;;;2081841;28;20026;-63
2020/12/03 00:56:08;;;;;;;10.27;8.13;;;;;;;;;;2080093;28;20430;-63
2020/12/03 00:57:27;;;;;;;11.45;7.50;;;;;;;;;;2079358;28;20022;-63
2020/12/03 00:58:47;;;;;;;12.68;7.32;;;;;;;;;;2081018;28;20057;-65
2020/12/03 01:00:08;;;;;;;9.75;7.50;;;;;;;;;;2081300;28;20022;-63
2020/12/03 01:01:27;;;;;;;13.20;7.90;;;;;;;;;;2079523;28;20030;-63
2020/12/03 01:02:46;;;;;;;12.20;8.20;;;;;;;;;;2079569;28;20022;-63
2020/12/03 01:04:05;;;;;;;11.52;7.70;;;;;;;;;;2081560;28;20025;-63
2020/12/03 01:05:24;;;;;;;15.50;7.55;;;;;;;;;;2082035;28;20030;-63
2020/12/03 01:06:44;;;;;;;10.23;7.70;;;;;;;;;;2074715;28;20026;-65
2020/12/03 01:08:03;;;;;;;15.82;8.23;;;;;;;;;;2075579;28;20030;-65
2020/12/03 01:09:22;;;;;;;10.60;7.40;;;;;;;;;;2080019;28;20108;-63
2020/12/03 01:10:41;;;;;;;15.05;8.23;;;;;;;;;;2081708;28;20037;-65
2020/12/03 01:12:00;;;;;;;15.60;8.93;;;;;;;;;;2082457;28;20033;-65
2020/12/03 01:13:19;;;;;;;10.23;7.72;;;;;;;;;;2080167;28;20030;-65
2020/12/03 01:14:39;;;;;;;13.90;8.40;;;;;;;;;;2081107;28;20018;-65
2020/12/03 01:15:58;;;;;;;11.95;8.32;;;;;;;;;;2080992;28;20026;-66
2020/12/03 01:17:17;;;;;;;11.02;8.13;;;;;;;;;;2080434;28;20033;-68
2020/12/03 01:18:36;;;;;;;13.13;8.05;;;;;;;;;;2081916;28;20034;-66
2020/12/03 01:19:55;;;;;;;11.52;8.35;;;;;;;;;;2080605;28;20029;-65
2020/12/03 01:21:18;;;;;;;14.00;8.45;;;;;;;;;;2078273;28;20029;-66
2020/12/03 01:22:37;;;;;;;11.25;7.18;;;;;;;;;;2072806;28;21086;-66
2020/12/03 01:23:56;;;;;;;12.27;7.85;;;;;;;;;;2081870;28;20493;-66
2020/12/03 01:25:19;;;;;;;12.13;8.25;;;;;;;;;;2079789;28;20038;-65
2020/12/03 01:26:37;;;;;;;14.90;8.80;;;;;;;;;;2078524;28;20091;-65
2020/12/03 01:27:57;;;;;;;15.75;8.43;;;;;;;;;;2075332;28;20053;-65
2020/12/03 01:29:19;;;;;;;13.45;8.68;;;;;;;;;;2081064;28;20033;-65
2020/12/03 01:30:39;;;;;;;16.20;8.40;;;;;;;;;;2080765;28;20033;-66
2020/12/03 01:31:58;;;;;;;13.30;8.57;;;;;;;;;;2080391;28;20017;-65
2020/12/03 01:33:16;;;;;;;13.68;8.43;;;;;;;;;;2081338;28;20401;-65
2020/12/03 01:34:35;;;;;;;16.48;8.60;;;;;;;;;;2080972;28;20033;-65
2020/12/03 01:35:54;;;;;;;11.68;8.57;;;;;;;;;;2080841;28;20021;-65
2020/12/03 01:37:16;;;;;;;12.05;7.72;;;;;;;;;;2080006;28;20057;-65
2020/12/03 01:38:35;;;;;;;13.88;8.00;;;;;;;;;;2080122;28;20033;-65
2020/12/03 01:39:54;;;;;;;13.32;8.85;;;;;;;;;;2080425;28;20037;-65
2020/12/03 01:41:13;;;;;;;16.42;8.70;;;;;;;;;;2080530;28;20025;-65
2020/12/03 01:42:32;;;;;;;12.07;7.78;;;;;;;;;;2077722;28;20377;-62
2020/12/03 01:43:51;;;;;;;11.85;8.18;;;;;;;;;;2080537;28;20465;-62
2020/12/03 01:45:28;;;;;;;12.52;8.52;;;;;;;;;;2079563;28;20057;-63
2020/12/03 01:46:47;;;;;;;10.25;7.68;;;;;;;;;;2075483;28;20029;-63
2020/12/03 01:48:09;;;;;;;15.65;8.80;;;;;;;;;;2081339;28;20034;-63
2020/12/03 01:49:30;;;;;;;13.68;8.02;;;;;;;;;;2079451;28;20037;-65
2020/12/03 01:50:49;;;;;;;10.43;7.72;;;;;;;;;;2079256;28;20029;-65
2020/12/03 01:52:08;;;;;;;11.20;7.95;;;;;;;;;;2078196;28;20073;-63
2020/12/03 01:53:28;;;;;;;10.90;7.68;;;;;;;;;;2078069;28;20029;-63
2020/12/03 01:54:46;;;;;;;12.93;8.35;;;;;;;;;;2078533;28;20113;-63
2020/12/03 01:56:16;;;;;;;12.80;8.13;;;;;;;;;;2079014;28;20500;-64
2020/12/03 01:57:53;;;;;;;13.85;8.38;;;;;;;;;;2079693;28;20105;-63
2020/12/03 01:59:12;;;;;;;10.77;8.23;;;;;;;;;;2079014;28;20025;-63
2020/12/03 02:00:31;;;;;;;14.07;7.05;;;;;;;;;;2080974;28;20017;-63
2020/12/03 02:01:50;;;;;;;11.80;8.32;;;;;;;;;;2078703;28;20477;-63
2020/12/03 02:03:09;;;;;;;11.82;8.10;;;;;;;;;;2079797;28;20388;-63
2020/12/03 02:04:28;;;;;;;11.25;7.88;;;;;;;;;;2079074;28;20026;-63
2020/12/03 02:05:47;;;;;;;12.05;7.72;;;;;;;;;;2079118;28;20029;-64
2020/12/03 02:07:08;;;;;;;12.50;8.23;;;;;;;;;;2079239;28;20501;-66
2020/12/03 02:08:27;;;;;;;14.38;8.05;;;;;;;;;;2078908;28;20029;-63
2020/12/03 02:09:46;;;;;;;14.57;8.93;;;;;;;;;;2079085;28;20033;-63
2020/12/03 02:11:05;;;;;;;13.63;8.02;;;;;;;;;;2078973;28;20148;-63
2020/12/03 02:12:24;;;;;;;14.45;8.82;;;;;;;;;;2080730;28;20025;-63
2020/12/03 02:13:56;;;;;;;11.43;8.00;;;;;;;;;;2080932;28;20497;-63
2020/12/03 02:15:16;;;;;;;15.40;8.02;;;;;;;;;;2079295;28;20273;-63
2020/12/03 02:16:37;;;;;;;13.10;8.38;;;;;;;;;;2079577;28;20033;-63
2020/12/03 02:17:55;;;;;;;11.68;8.15;;;;;;;;;;2076024;28;20030;-64
2020/12/03 02:19:19;;;;;;;10.25;7.43;;;;;;;;;;2077496;28;20475;-63
2020/12/03 02:20:38;;;;;;;13.50;8.13;;;;;;;;;;2077572;28;20037;-63
2020/12/03 02:22:03;;;;;;;13.35;8.43;;;;;;;;;;2079535;28;20489;-63
2020/12/03 02:23:22;;;;;;;10.18;7.47;;;;;;;;;;2075017;28;20042;-63
2020/12/03 02:24:41;;;;;;;10.35;8.10;;;;;;;;;;2079952;28;20025;-63
2020/12/03 02:26:00;;;;;;;14.60;8.45;;;;;;;;;;2080123;28;20493;-63
2020/12/03 02:27:21;;;;;;;10.43;7.50;;;;;;;;;;2076724;28;20542;-65
2020/12/03 02:28:40;;;;;;;11.07;7.78;;;;;;;;;;2081102;28;20072;-65
2020/12/03 02:29:59;;;;;;;10.60;7.53;;;;;;;;;;2079323;28;20120;-63
2020/12/03 02:31:18;;;;;;;10.85;7.90;;;;;;;;;;2079673;28;20037;-63
2020/12/03 02:32:37;;;;;;;13.13;8.07;;;;;;;;;;2079775;28;20033;-63
2020/12/03 02:33:56;;;;;;;11.10;7.47;;;;;;;;;;2074315;28;20128;-63
2020/12/03 02:35:15;;;;;;;10.57;7.68;;;;;;;;;;2075007;28;20018;-63
2020/12/03 02:36:34;;;;;;;17.27;8.75;;;;;;;;;;2077614;28;20030;-65
2020/12/03 02:37:53;;;;;;;11.02;7.45;;;;;;;;;;2076364;28;20057;-63
2020/12/03 02:39:12;;;;;;;15.38;7.97;;;;;;;;;;2081845;28;20030;-65
2020/12/03 02:40:31;;;;;;;10.82;8.02;;;;;;;;;;2079965;28;20029;-63
2020/12/03 02:41:50;;;;;;;12.50;7.57;;;;;;;;;;2077972;28;20021;-63
2020/12/03 02:43:08;;;;;;;11.13;7.93;;;;;;;;;;2077115;28;20049;-63
2020/12/03 02:44:28;;;;;;;11.38;7.88;;;;;;;;;;2079403;28;20073;-63
2020/12/03 02:45:47;;;;;;;12.95;8.13;;;;;;;;;;2079483;28;20026;-65
2020/12/03 02:47:06;;;;;;;14.73;7.90;;;;;;;;;;2080177;28;20525;-66
2020/12/03 02:48:24;;;;;;;13.52;8.05;;;;;;;;;;2080917;28;20046;-65
2020/12/03 02:49:43;;;;;;;13.07;7.82;;;;;;;;;;2081086;28;20474;-63
2020/12/03 02:51:02;;;;;;;12.93;8.02;;;;;;;;;;2078841;28;20045;-63
2020/12/03 02:52:23;;;;;;;14.05;8.55;;;;;;;;;;2079990;28;20042;-65
2020/12/03 02:53:41;;;;;;;10.82;7.53;;;;;;;;;;2079681;28;20485;-65
2020/12/03 02:55:00;;;;;;;11.38;7.75;;;;;;;;;;2079757;28;20029;-65
2020/12/03 02:56:19;;;;;;;10.68;7.68;;;;;;;;;;2079149;28;20497;-65
2020/12/03 02:57:38;;;;;;;12.95;8.65;;;;;;;;;;2080031;28;20041;-64
2020/12/03 02:58:57;;;;;;;11.63;8.10;;;;;;;;;;2077610;28;20406;-64
2020/12/03 03:00:16;;;;;;;11.77;7.88;;;;;;;;;;2079097;28;20017;-66
2020/12/03 03:01:35;;;;;;;11.50;7.47;;;;;;;;;;2079882;28;20030;-63
2020/12/03 03:02:54;;;;;;;14.82;8.88;;;;;;;;;;2078784;28;20029;-63
2020/12/03 03:04:13;;;;;;;14.10;8.82;;;;;;;;;;2077179;28;20112;-63
2020/12/03 03:05:32;;;;;;;9.68;7.40;;;;;;;;;;2078164;28;20084;-65
2020/12/03 03:06:52;;;;;;;12.98;8.40;;;;;;;;;;2074833;28;20033;-65
2020/12/03 03:08:11;;;;;;;12.60;7.75;;;;;;;;;;2080048;28;20025;-63
2020/12/03 03:09:30;;;;;;;12.15;8.63;;;;;;;;;;2080243;28;20029;-63
2020/12/03 03:10:49;;;;;;;9.82;7.68;;;;;;;;;;2074705;28;20034;-63
2020/12/03 03:12:08;;;;;;;10.05;7.72;;;;;;;;;;2080779;28;20495;-64
2020/12/03 03:13:27;;;;;;;11.43;7.43;;;;;;;;;;2080037;28;20021;-64
2020/12/03 03:14:46;;;;;;;11.80;7.93;;;;;;;;;;2080564;28;20025;-64
2020/12/03 03:16:04;;;;;;;12.63;7.20;;;;;;;;;;2080790;28;20033;-64
2020/12/03 03:17:23;;;;;;;12.45;7.95;;;;;;;;;;2080886;28;20021;-64
2020/12/03 03:18:42;;;;;;;7.88;6.25;;;;;;;;;;2080208;28;20104;-64
2020/12/03 03:20:01;;;;;;;10.45;6.78;;;;;;;;;;2082306;28;20014;-64
2020/12/03 03:21:20;;;;;;;11.25;7.30;;;;;;;;;;2080423;28;20470;-64
2020/12/03 03:22:39;;;;;;;9.98;6.82;;;;;;;;;;2075330;28;20234;-64
2020/12/03 03:23:59;;;;;;;9.35;6.22;;;;;;;;;;2075313;28;20029;-64
2020/12/03 03:25:18;;;;;;;12.35;7.97;;;;;;;;;;2079552;28;20030;-64
2020/12/03 03:26:37;;;;;;;9.73;6.95;;;;;;;;;;2079448;28;20029;-65
2020/12/03 03:27:56;;;;;;;9.57;7.22;;;;;;;;;;2081037;28;20108;-64
2020/12/03 03:29:16;;;;;;;8.65;6.63;;;;;;;;;;2081838;28;20063;-64
2020/12/03 03:30:35;;;;;;;9.43;7.00;;;;;;;;;;2077913;28;20032;-64
2020/12/03 03:31:54;;;;;;;10.27;7.10;;;;;;;;;;2082542;28;20437;-64
2020/12/03 03:33:13;;;;;;;11.55;7.32;;;;;;;;;;2082467;28;20029;-64
2020/12/03 03:34:32;;;;;;;12.32;7.93;;;;;;;;;;2082090;28;20025;-64
2020/12/03 03:35:51;;;;;;;10.57;7.55;;;;;;;;;;2080952;28;20025;-64
2020/12/03 03:37:09;;;;;;;12.65;7.35;;;;;;;;;;2079625;28;20104;-64
2020/12/03 03:38:28;;;;;;;8.48;6.68;;;;;;;;;;2080563;28;20112;-64
2020/12/03 03:39:47;;;;;;;9.63;6.50;;;;;;;;;;2081421;28;20472;-63
2020/12/03 03:41:06;;;;;;;11.77;7.57;;;;;;;;;;2081879;28;20478;-64
2020/12/03 03:42:25;;;;;;;11.27;7.05;;;;;;;;;;2076629;28;20041;-64
2020/12/03 03:43:44;;;;;;;10.32;6.30;;;;;;;;;;2077737;28;20034;-64
2020/12/03 03:45:04;;;;;;;7.40;6.22;;;;;;;;;;2081174;28;20381;-64
2020/12/03 03:46:23;;;;;;;9.93;7.22;;;;;;;;;;2081712;28;20029;-64
2020/12/03 03:47:42;;;;;;;10.80;6.45;;;;;;;;;;2082067;28;20026;-64
2020/12/03 03:49:01;;;;;;;10.00;7.20;;;;;;;;;;2074573;28;20485;-64
2020/12/03 03:50:22;;;;;;;8.27;6.45;;;;;;;;;;2079632;28;20034;-64
2020/12/03 03:51:40;;;;;;;9.82;6.28;;;;;;;;;;2080714;28;20535;-64
2020/12/03 03:52:59;;;;;;;11.38;6.18;;;;;;;;;;2079557;28;20037;-64
2020/12/03 03:54:18;;;;;;;9.65;6.20;;;;;;;;;;2081081;28;20072;-64
2020/12/03 03:55:38;;;;;;;7.40;6.30;;;;;;;;;;2078706;28;20025;-64
2020/12/03 03:56:57;;;;;;;11.70;6.93;;;;;;;;;;2080532;28;20385;-65
2020/12/03 03:58:16;;;;;;;9.45;6.05;;;;;;;;;;2080866;28;20030;-63
2020/12/03 03:59:35;;;;;;;8.05;6.32;;;;;;;;;;2082961;28;20473;-64
2020/12/03 04:00:54;;;;;;;7.93;6.40;;;;;;;;;;2081315;28;20072;-63
2020/12/03 04:02:13;;;;;;;8.40;6.68;;;;;;;;;;2082519;28;20373;-64
2020/12/03 04:03:32;;;;;;;10.85;6.80;;;;;;;;;;2080765;28;20394;-64
2020/12/03 04:04:51;;;;;;;15.20;8.65;;;;;;;;;;2075258;28;20459;-64
2020/12/03 04:06:10;;;;;;;10.55;6.80;;;;;;;;;;2080427;28;20093;-63
2020/12/03 04:07:29;;;;;;;10.10;6.85;;;;;;;;;;2080771;28;20481;-63
2020/12/03 04:08:48;;;;;;;8.95;6.43;;;;;;;;;;2077567;28;20037;-65
2020/12/03 04:10:07;;;;;;;10.00;6.57;;;;;;;;;;2079452;28;20068;-64
2020/12/03 04:11:26;;;;;;;8.05;6.35;;;;;;;;;;2081629;28;20119;-64
2020/12/03 04:12:45;;;;;;;7.13;5.63;;;;;;;;;;2079881;28;20026;-64
2020/12/03 04:14:03;;;;;;;9.55;6.80;;;;;;;;;;2080025;28;20021;-64
2020/12/03 04:15:22;;;;;;;8.57;6.80;;;;;;;;;;2080790;28;20426;-64
2020/12/03 04:16:41;;;;;;;11.10;7.47;;;;;;;;;;2080030;28;20474;-64
2020/12/03 04:18:00;;;;;;;11.20;6.30;;;;;;;;;;2075318;28;20030;-64
2020/12/03 04:19:19;;;;;;;10.25;6.40;;;;;;;;;;2076244;28;20034;-64
2020/12/03 04:20:38;;;;;;;7.32;5.90;;;;;;;;;;2080203;28;20388;-64
2020/12/03 04:21:58;;;;;;;8.95;6.50;;;;;;;;;;2080046;28;20100;-64
2020/12/03 04:23:16;;;;;;;8.25;6.35;;;;;;;;;;2081826;28;20446;-64
2020/12/03 04:24:35;;;;;;;8.05;6.18;;;;;;;;;;2080043;28;20304;-64
2020/12/03 04:25:54;;;;;;;8.55;6.05;;;;;;;;;;2078043;28;20382;-64
2020/12/03 04:27:14;;;;;;;10.45;5.93;;;;;;;;;;2078337;28;20150;-64
2020/12/03 04:28:33;;;;;;;7.18;5.68;;;;;;;;;;2080523;28;20061;-64
2020/12/03 04:29:52;;;;;;;7.03;6.20;;;;;;;;;;2078620;28;20136;-64
2020/12/03 04:31:11;;;;;;;10.90;6.88;;;;;;;;;;2077918;28;20049;-64
2020/12/03 04:32:30;;;;;;;8.63;6.53;;;;;;;;;;2080047;28;20025;-64
2020/12/03 04:33:49;;;;;;;11.93;6.80;;;;;;;;;;2078452;28;20026;-65
2020/12/03 04:35:09;;;;;;;8.63;6.53;;;;;;;;;;2081813;28;20022;-64
2020/12/03 04:36:27;;;;;;;12.48;6.00;;;;;;;;;;2081526;28;20033;-64
2020/12/03 04:37:48;;;;;;;11.27;6.60;;;;;;;;;;2081135;28;20025;-64
2020/12/03 04:39:07;;;;;;;7.78;6.13;;;;;;;;;;2079629;28;20029;-64
2020/12/03 04:40:28;;;;;;;7.63;6.03;;;;;;;;;;2077753;28;20021;-65
2020/12/03 04:41:47;;;;;;;7.43;5.85;;;;;;;;;;2078945;28;20171;-65
2020/12/03 04:43:09;;;;;;;10.15;6.90;;;;;;;;;;2079067;28;20029;-65
2020/12/03 04:44:33;;;;;;;11.13;6.13;;;;;;;;;;2074323;28;20057;-65
2020/12/03 04:46:04;;;;;;;8.48;6.78;;;;;;;;;;2080379;28;20092;-65
2020/12/03 04:47:34;;;;;;;9.00;6.78;;;;;;;;;;2078322;28;20413;-65
2020/12/03 04:49:23;;;;;;;9.60;6.70;;;;;;;;;;2076914;28;20033;-65
2020/12/03 04:50:44;;;;;;;9.63;6.32;;;;;;;;;;2078104;28;20116;-64
2020/12/03 04:52:23;;;;;;;12.32;6.68;;;;;;;;;;2079394;28;20022;-65
2020/12/03 04:53:51;;;;;;;12.15;6.78;;;;;;;;;;2080523;28;20029;-65
2020/12/03 04:55:29;;;;;;;8.52;6.25;;;;;;;;;;2079990;28;20026;-66
2020/12/03 04:57:07;;;;;;;9.00;6.50;;;;;;;;;;2078218;28;20029;-65
2020/12/03 04:58:29;;;;;;;14.27;7.18;;;;;;;;;;2078442;28;20025;-65
2020/12/03 04:59:55;;;;;;;13.20;7.25;;;;;;;;;;2078565;28;20101;-67
2020/12/03 05:01:27;;;;;;;9.23;6.70;;;;;;;;;;2080291;28;20021;-65
2020/12/03 05:03:18;;;;;;;11.00;7.03;;;;;;;;;;2076572;28;20049;-65
2020/12/03 05:04:37;;;;;;;13.90;7.35;;;;;;;;;;2071467;28;20038;-65
2020/12/03 05:05:56;;;;;;;10.55;7.10;;;;;;;;;;2078317;28;20034;-65
2020/12/03 05:07:15;;;;;;;12.25;7.07;;;;;;;;;;2069675;28;20112;-65
2020/12/03 05:08:44;;;;;;;10.00;6.97;;;;;;;;;;2079900;28;20022;-65
2020/12/03 05:10:14;;;;;;;13.02;7.05;;;;;;;;;;2084996;28;20025;-65
2020/12/03 05:11:38;;;;;;;10.15;7.35;;;;;;;;;;2078125;28;20069;-65
2020/12/03 05:12:57;;;;;;;8.23;7.20;;;;;;;;;;2080764;28;20025;-65
2020/12/03 05:14:31;;;;;;;11.73;7.07;;;;;;;;;;2082644;28;20453;-64
2020/12/03 05:15:52;;;;;;;10.18;7.20;;;;;;;;;;2075754;28;20046;-66
2020/12/03 05:17:34;;;;;;;10.43;6.90;;;;;;;;;;2078789;28;20061;-65
2020/12/03 05:19:03;;;;;;;9.43;7.00;;;;;;;;;;2080065;28;20029;-65
2020/12/03 05:20:24;;;;;;;13.18;7.25;;;;;;;;;;2080520;28;20382;-64
2020/12/03 05:21:43;;;;;;;14.25;8.68;;;;;;;;;;2077823;28;20030;-64
2020/12/03 05:23:09;;;;;;;7.72;6.45;;;;;;;;;;2078260;28;20037;-64
2020/12/03 05:24:28;;;;;;;14.38;7.18;;;;;;;;;;2079050;28;20033;-65
2020/12/03 05:25:48;;;;;;;12.60;7.75;;;;;;;;;;2079383;28;20051;-65
2020/12/03 05:27:14;;;;;;;15.02;7.90;;;;;;;;;;2081418;28;20025;-65
2020/12/03 05:28:51;;;;;;;10.95;8.00;;;;;;;;;;2079033;28;20041;-65
2020/12/03 05:30:10;;;;;;;10.40;7.85;;;;;;;;;;2081696;28;20033;-65
2020/12/03 05:31:41;;;;;;;11.07;7.63;;;;;;;;;;2078272;28;20045;-65
2020/12/03 05:32:59;;;;;;;10.80;6.50;;;;;;;;;;2080638;28;20108;-65
2020/12/03 05:34:20;;;;;;;13.38;7.60;;;;;;;;;;2081671;28;20124;-65
2020/12/03 05:35:39;;;;;;;10.73;7.78;;;;;;;;;;2074772;28;20030;-65
2020/12/03 05:36:59;;;;;;;11.27;7.60;;;;;;;;;;2079077;28;20033;-65
2020/12/03 05:38:21;;;;;;;12.48;8.02;;;;;;;;;;2079966;28;20034;-65
2020/12/03 05:39:44;;;;;;;10.57;7.82;;;;;;;;;;2080577;28;20108;-65
2020/12/03 05:41:05;;;;;;;11.25;7.97;;;;;;;;;;2076798;28;20370;-65
2020/12/03 05:42:35;;;;;;;13.40;7.38;;;;;;;;;;2081386;28;20084;-65
2020/12/03 05:43:54;;;;;;;11.63;7.32;;;;;;;;;;2079515;28;20112;-65
2020/12/03 05:45:21;;;;;;;15.98;7.75;;;;;;;;;;2076861;28;20033;-66
2020/12/03 05:46:40;;;;;;;12.27;8.05;;;;;;;;;;2076976;28;20068;-64
2020/12/03 05:48:03;;;;;;;13.23;6.55;;;;;;;;;;2080418;28;20033;-65
2020/12/03 05:49:24;;;;;;;12.93;7.85;;;;;;;;;;2080653;28;20033;-64
2020/12/03 05:50:43;;;;;;;11.25;7.68;;;;;;;;;;2079594;28;20029;-65
2020/12/03 05:52:07;;;;;;;12.07;7.53;;;;;;;;;;2080617;28;20025;-65
2020/12/03 05:53:27;;;;;;;9.30;7.25;;;;;;;;;;2081270;28;20049;-65
2020/12/03 05:55:06;;;;;;;12.75;8.20;;;;;;;;;;2080193;28;20017;-65
2020/12/03 05:56:26;;;;;;;10.30;7.18;;;;;;;;;;2079271;28;20384;-65
2020/12/03 05:57:44;;;;;;;11.27;7.97;;;;;;;;;;2081172;28;20030;-65
2020/12/03 05:59:21;;;;;;;8.38;7.35;;;;;;;;;;2080832;28;20104;-65
2020/12/03 06:00:40;;;;;;;11.38;7.40;;;;;;;;;;2079237;28;20053;-67
2020/12/03 06:02:22;;;;;;;11.35;7.75;;;;;;;;;;2080041;28;20033;-65
2020/12/03 06:03:49;;;;;;;9.40;6.78;;;;;;;;;;2080359;28;20018;-67
2020/12/03 06:05:16;;;;;;;9.63;6.75;;;;;;;;;;2079788;28;20041;-64
2020/12/03 06:06:47;;;;;;;11.15;7.45;;;;;;;;;;2078350;28;20026;-64
2020/12/03 06:08:22;;;;;;;11.38;7.15;;;;;;;;;;2079400;28;20017;-64
2020/12/03 06:09:47;;;;;;;9.25;7.65;;;;;;;;;;2074655;28;20361;-67
2020/12/03 06:11:25;;;;;;;15.48;7.65;;;;;;;;;;2079621;28;20108;-65
2020/12/03 06:13:00;;;;;;;12.32;7.90;;;;;;;;;;2080174;28;20025;-66
2020/12/03 06:14:38;;;;;;;13.40;7.72;;;;;;;;;;2080704;28;20026;-63
2020/12/03 06:16:02;;;;;;;13.27;7.35;;;;;;;;;;2076823;28;20033;-62
2020/12/03 06:17:24;;;;;;;14.00;7.70;;;;;;;;;;2079189;28;20108;-63
2020/12/03 06:19:01;;;;;;;9.98;7.25;;;;;;;;;;2079793;28;20139;-63
2020/12/03 06:20:26;;;;;;;12.80;8.18;;;;;;;;;;2078764;28;20022;-62
2020/12/03 06:21:53;;;;;;;11.25;7.15;;;;;;;;;;2079503;28;20061;-63
2020/12/03 06:23:15;;;;;;;15.15;7.82;;;;;;;;;;2077973;28;20025;-63
2020/12/03 06:24:40;;;;;;;11.65;8.13;;;;;;;;;;2078799;28;20374;-63
2020/12/03 06:26:17;;;;;;;13.52;7.55;;;;;;;;;;2076718;28;20037;-64
2020/12/03 06:27:36;;;;;;;13.18;7.53;;;;;;;;;;2078847;28;20112;-62
2020/12/03 06:28:55;;;;;;;13.50;7.38;;;;;;;;;;2079656;28;20464;-63
2020/12/03 06:30:32;;;;;;;12.15;8.55;;;;;;;;;;2079691;28;20446;-62
2020/12/03 06:31:53;;;;;;;11.32;7.43;;;;;;;;;;2077395;28;20054;-66
2020/12/03 06:33:21;;;;;;;10.38;7.72;;;;;;;;;;2075633;28;20053;-62
2020/12/03 06:34:46;;;;;;;9.10;7.25;;;;;;;;;;2080128;28;20033;-63
2020/12/03 06:36:27;;;;;;;8.75;7.28;;;;;;;;;;2077966;28;20025;-63
2020/12/03 06:37:50;;;;;;;14.90;8.52;;;;;;;;;;2077736;28;21902;-63
2020/12/03 06:39:15;;;;;;;9.70;7.80;;;;;;;;;;2075937;28;20025;-66
2020/12/03 06:40:36;;;;;;;11.05;7.53;;;;;;;;;;2077030;28;20133;-63
2020/12/03 06:42:14;;;;;;;15.68;7.82;;;;;;;;;;2091255;28;20028;-63
2020/12/03 06:43:36;;;;;;;11.20;7.78;;;;;;;;;;2081340;28;20029;-63
2020/12/03 06:45:10;;;;;;;12.02;7.60;;;;;;;;;;2078274;28;20813;-63
2020/12/03 06:46:29;;;;;;;12.07;7.75;;;;;;;;;;2079518;28;20037;-63
2020/12/03 06:47:58;;;;;;;12.68;8.00;;;;;;;;;;2078737;28;20033;-63
2020/12/03 06:49:35;;;;;;;13.18;7.97;;;;;;;;;;2078088;28;20037;-64
2020/12/03 06:50:54;;;;;;;10.90;8.20;;;;;;;;;;2078640;28;20033;-62
2020/12/03 06:52:16;;;;;;;10.90;8.02;;;;;;;;;;2078180;28;20029;-63
2020/12/03 06:53:54;;;;;;;12.85;7.65;;;;;;;;;;2079227;28;20041;-65
2020/12/03 06:55:32;;;;;;;13.48;7.78;;;;;;;;;;2078666;28;20104;-62
2020/12/03 06:57:13;;;;;;;12.73;7.68;;;;;;;;;;2078330;28;20033;-63
2020/12/03 06:58:53;;;;;;;11.75;7.82;;;;;;;;;;2077195;28;20481;-63
2020/12/03 07:00:18;;;;;;;12.90;8.65;;;;;;;;;;2077890;28;20129;-63
2020/12/03 07:01:39;;;;;;;14.20;7.88;;;;;;;;;;2079175;28;20443;-63
2020/12/03 07:03:08;;;;;;;14.10;8.13;;;;;;;;;;2079143;28;20045;-63
2020/12/03 07:05:05;;;;;;;14.43;7.78;;;;;;;;;;2086568;28;20112;-64
2020/12/03 07:06:35;;;;;;;11.50;8.25;;;;;;;;;;2067868;28;20105;-65
2020/12/03 07:07:57;;;;;;;14.90;7.93;;;;;;;;;;2070042;28;20109;-63
2020/12/03 07:09:24;;;;;;;14.52;7.10;;;;;;;;;;2069803;28;20042;-63
2020/12/03 07:10:52;;;;;;;10.55;8.10;;;;;;;;;;2069006;28;20390;-63
2020/12/03 07:12:30;;;;;;;11.90;7.90;;;;;;;;;;2081731;28;20084;-63
2020/12/03 07:14:08;;;;;;;11.75;7.82;;;;;;;;;;2078242;28;20381;-63
2020/12/03 07:15:45;;;;;;;11.55;7.47;;;;;;;;;;2076217;28;20057;-64
2020/12/03 07:17:23;;;;;;;11.38;7.55;;;;;;;;;;2078596;28;20022;-63
2020/12/03 07:18:42;;;;;;;16.98;8.07;;;;;;;;;;2076869;28;20030;-63
2020/12/03 07:20:01;;;;;;;12.60;8.52;;;;;;;;;;2079675;28;20026;-64
2020/12/03 07:21:39;;;;;;;10.25;7.80;;;;;;;;;;2078908;28;20029;-63
2020/12/03 07:23:02;;;;;;;12.05;8.05;;;;;;;;;;2079358;28;20456;-63
2020/12/03 07:24:21;;;;;;;;;;;;;;;;;;2079048;28;20034;-63
2020/12/03 07:25:41;;;;;;;12.25;8.25;;;;;;;;;;2078923;28;19904;-63
2020/12/03 07:27:23;;;;;;;14.35;8.00;;;;;;;;;;2078432;28;20505;-63
2020/12/03 07:28:43;;;;;;;13.45;8.23;;;;;;;;;;2079151;28;20029;-63
2020/12/03 07:30:05;;;;;;;14.93;7.70;;;;;;;;;;2078123;28;20025;-63
2020/12/03 07:31:36;;;;;;;11.25;8.32;;;;;;;;;;2077815;28;20033;-63
2020/12/03 07:33:05;;;;;;;16.05;8.07;;;;;;;;;;2077987;28;20417;-63
2020/12/03 07:34:34;;;;;;;11.18;8.27;;;;;;;;;;2077833;28;20029;-63
2020/12/03 07:36:08;;;;;;;15.85;8.77;;;;;;;;;;2079727;28;20485;-65
2020/12/03 07:37:35;;;;;;;15.25;8.60;;;;;;;;;;2077927;28;20042;-64
2020/12/03 07:38:57;;;;;;;16.52;8.55;;;;;;;;;;2079068;28;20445;-64
2020/12/03 07:40:20;;;;;;;16.40;9.00;;;;;;;;;;2076432;28;20564;-65
2020/12/03 07:41:59;;;;;;;12.65;8.90;;;;;;;;;;2078456;28;20033;-63
2020/12/03 07:43:47;;;;;;;14.98;8.27;;;;;;;;;;2079124;28;20021;-63
2020/12/03 07:45:23;;;;;;;18.13;9.82;;;;;;;;;;2076679;28;20409;-64
2020/12/03 07:46:42;;;;;;;14.13;8.90;;;;;;;;;;2079369;28;20105;-63
2020/12/03 07:48:10;;;;;;;17.65;8.93;;;;;;;;;;2079761;28;20026;-63
2020/12/03 07:49:46;;;;;;;16.95;9.10;;;;;;;;;;2079693;28;20022;-63
2020/12/03 07:51:09;;;;;;;11.02;8.68;;;;;;;;;;2079139;28;20038;-64
2020/12/03 07:52:33;;;;;;;15.93;10.10;;;;;;;;;;2080437;28;20048;-63
2020/12/03 07:54:21;;;;;;;14.95;9.88;;;;;;;;;;2077324;28;20021;-62
2020/12/03 07:55:41;;;;;;;15.50;10.18;;;;;;;;;;2073430;28;20018;-63
2020/12/03 07:57:00;;;;;;;15.13;9.82;;;;;;;;;;2075141;28;20025;-64
2020/12/03 07:58:34;;;;;;;20.48;9.93;;;;;;;;;;2076173;28;20285;-64
2020/12/03 07:59:53;;;;;;;13.90;9.07;;;;;;;;;;2076412;28;20413;-62
2020/12/03 08:01:15;;;;;;;17.15;9.63;;;;;;;;;;2077366;28;20049;-67
2020/12/03 08:02:51;;;;;;;16.42;10.48;;;;;;;;;;2082231;28;20386;-65
2020/12/03 08:04:10;;;;;;;15.80;9.88;;;;;;;;;;2080239;28;20072;-65
2020/12/03 08:05:29;;;;;;;20.45;10.30;;;;;;;;;;2081453;28;20235;-64
2020/12/03 08:07:08;;;;;;;19.60;10.85;;;;;;;;;;2081615;28;20025;-63
2020/12/03 08:08:28;;;;;;;18.90;10.30;;;;;;;;;;2079495;28;20109;-64
2020/12/03 08:09:47;;;;;;;16.00;9.52;;;;;;;;;;2080456;28;20100;-65